Time,TemperatureF,DewpointF,PressureIn,WindDirection,WindDirectionDegrees,WindSpeedMPH,WindSpeedGustMPH,Humidity,HourlyPrecipIn,Conditions,Clouds,dailyrainin,SoftwareType,DateUTC
2015-06-02 00:03:00,66.5,44.5,29.53,West,273,4.0,9.0,45,0.00,,,0.00,Wunderground v.1.15,2015-06-02 06:03:00,
2015-06-02 00:09:00,66.4,44.4,29.53,WNW,290,6.0,11.0,45,0.00,,,0.00,Wunderground v.1.15,2015-06-02 06:09:00,
2015-06-02 00:14:00,66.7,44.1,29.53,WNW,285,6.0,7.0,44,0.00,,,0.00,Wunderground v.1.15,2015-06-02 06:14:00,
2015-06-02 00:20:00,66.6,44.6,29.54,NE,37,5.0,5.0,45,0.00,,,0.00,Wunderground v.1.15,2015-06-02 06:20:00,
2015-06-02 00:25:00,65.6,44.8,29.54,SSW,210,4.0,5.0,47,0.00,,,0.00,Wunderground v.1.15,2015-06-02 06:25:00,
2015-06-02 00:31:00,65.4,44.6,29.53,WSW,250,3.0,10.0,47,0.00,,,0.00,Wunderground v.1.15,2015-06-02 06:31:00,
2015-06-02 00:36:00,65.3,44.5,29.52,WNW,302,4.0,10.0,47,0.00,,,0.00,Wunderground v.1.15,2015-06-02 06:36:00,
2015-06-02 00:42:00,65.3,44.0,29.53,SW,231,3.0,4.0,46,0.00,,,0.00,Wunderground v.1.15,2015-06-02 06:42:00,
2015-06-02 00:48:00,64.9,43.6,29.53,West,279,2.0,4.0,46,0.00,,,0.00,Wunderground v.1.15,2015-06-02 06:48:00,
2015-06-02 00:54:00,64.0,45.0,29.53,NW,304,3.0,8.0,50,0.00,,,0.00,Wunderground v.1.15,2015-06-02 06:54:00,
2015-06-02 01:00:00,63.6,44.1,29.53,West,274,3.0,3.0,49,0.00,,,0.00,Wunderground v.1.15,2015-06-02 07:00:00,
2015-06-02 01:06:00,63.9,43.8,29.53,WNW,300,3.0,3.0,48,0.00,,,0.00,Wunderground v.1.15,2015-06-02 07:06:00,
2015-06-02 01:12:00,64.0,43.9,29.53,West,264,4.0,7.0,48,0.00,,,0.00,Wunderground v.1.15,2015-06-02 07:12:00,
2015-06-02 01:18:00,64.1,43.4,29.53,West,277,6.0,7.0,47,0.00,,,0.00,Wunderground v.1.15,2015-06-02 07:18:00,
2015-06-02 01:24:00,64.0,43.9,29.52,West,281,6.0,8.0,48,0.00,,,0.00,Wunderground v.1.15,2015-06-02 07:24:00,
2015-06-02 01:30:00,64.7,42.9,29.52,West,281,6.0,6.0,45,0.00,,,0.00,Wunderground v.1.15,2015-06-02 07:30:00,
2015-06-02 01:35:00,65.0,43.1,29.53,West,270,6.0,7.0,45,0.00,,,0.00,Wunderground v.1.15,2015-06-02 07:35:00,
2015-06-02 01:40:00,64.3,43.6,29.53,NNE,14,4.0,5.0,47,0.00,,,0.00,Wunderground v.1.15,2015-06-02 07:40:00,
2015-06-02 01:45:00,62.5,44.1,29.53,NW,325,4.0,5.0,51,0.00,,,0.00,Wunderground v.1.15,2015-06-02 07:45:00,
2015-06-02 01:51:00,62.6,43.2,29.53,WNW,283,4.0,4.0,49,0.00,,,0.00,Wunderground v.1.15,2015-06-02 07:51:00,
2015-06-02 01:57:00,62.6,43.7,29.53,WNW,290,3.0,4.0,50,0.00,,,0.00,Wunderground v.1.15,2015-06-02 07:57:00,
2015-06-02 02:02:00,62.5,43.1,29.53,West,280,3.0,3.0,49,0.00,,,0.00,Wunderground v.1.15,2015-06-02 08:02:00,
2015-06-02 02:08:00,62.8,43.9,29.53,NW,311,3.0,5.0,50,0.00,,,0.00,Wunderground v.1.15,2015-06-02 08:08:00,
2015-06-02 02:13:00,62.9,44.5,29.53,NW,326,4.0,6.0,51,0.00,,,0.00,Wunderground v.1.15,2015-06-02 08:13:00,
2015-06-02 02:19:00,62.1,45.2,29.53,NW,312,6.0,8.0,54,0.00,,,0.00,Wunderground v.1.15,2015-06-02 08:19:00,
2015-06-02 02:25:00,61.4,46.0,29.53,NW,311,7.0,8.0,57,0.00,,,0.00,Wunderground v.1.15,2015-06-02 08:25:00,
2015-06-02 02:30:00,61.4,46.0,29.52,NW,315,7.0,8.0,57,0.00,,,0.00,Wunderground v.1.15,2015-06-02 08:30:00,
2015-06-02 02:36:00,61.2,45.8,29.53,NNW,330,7.0,8.0,57,0.00,,,0.00,Wunderground v.1.15,2015-06-02 08:36:00,
2015-06-02 02:42:00,60.5,46.1,29.52,NW,312,5.0,8.0,59,0.00,,,0.00,Wunderground v.1.15,2015-06-02 08:42:00,
2015-06-02 02:48:00,60.0,45.6,29.53,NW,315,5.0,8.0,59,0.00,,,0.00,Wunderground v.1.15,2015-06-02 08:48:00,
2015-06-02 02:54:00,59.6,46.1,29.52,NW,311,6.0,7.0,61,0.00,,,0.00,Wunderground v.1.15,2015-06-02 08:54:00,
2015-06-02 03:00:00,59.5,45.2,29.52,NW,315,5.0,8.0,59,0.00,,,0.00,Wunderground v.1.15,2015-06-02 09:00:00,
2015-06-02 03:06:00,59.9,45.5,29.52,NW,312,5.0,9.0,59,0.00,,,0.00,Wunderground v.1.15,2015-06-02 09:06:00,
2015-06-02 03:12:00,60.2,44.4,29.52,NW,308,6.0,7.0,56,0.00,,,0.00,Wunderground v.1.15,2015-06-02 09:12:00,
2015-06-02 03:18:00,60.1,44.8,29.52,West,267,3.0,7.0,57,0.00,,,0.00,Wunderground v.1.15,2015-06-02 09:18:00,
2015-06-02 03:24:00,58.8,44.9,29.52,SW,235,2.0,3.0,60,0.00,,,0.00,Wunderground v.1.15,2015-06-02 09:24:00,
2015-06-02 03:30:00,58.1,44.7,29.52,WSW,249,1.0,1.0,61,0.00,,,0.00,Wunderground v.1.15,2015-06-02 09:30:00,
2015-06-02 03:35:00,57.6,44.2,29.52,NW,308,1.0,3.0,61,0.00,,,0.00,Wunderground v.1.15,2015-06-02 09:35:00,
2015-06-02 03:41:00,58.2,43.9,29.52,SE,124,2.0,2.0,59,0.00,,,0.00,Wunderground v.1.15,2015-06-02 09:41:00,
2015-06-02 03:47:00,56.9,44.8,29.52,West,259,2.0,4.0,64,0.00,,,0.00,Wunderground v.1.15,2015-06-02 09:47:00,
2015-06-02 03:53:00,55.6,45.2,29.52,West,274,2.0,8.0,68,0.00,,,0.00,Wunderground v.1.15,2015-06-02 09:53:00,
2015-06-02 03:59:00,56.5,44.5,29.53,WSW,239,2.0,8.0,64,0.00,,,0.00,Wunderground v.1.15,2015-06-02 09:59:00,
2015-06-02 04:05:00,55.8,45.0,29.52,WNW,301,2.0,3.0,67,0.00,,,0.00,Wunderground v.1.15,2015-06-02 10:05:00,
2015-06-02 04:11:00,56.3,43.9,29.52,West,274,2.0,2.0,63,0.00,,,0.00,Wunderground v.1.15,2015-06-02 10:11:00,
2015-06-02 04:16:00,56.1,44.1,29.52,WNW,294,3.0,7.0,64,0.00,,,0.00,Wunderground v.1.15,2015-06-02 10:16:00,
2015-06-02 04:22:00,56.6,44.1,29.52,WNW,297,4.0,4.0,63,0.00,,,0.00,Wunderground v.1.15,2015-06-02 10:22:00,
2015-06-02 04:28:00,57.2,43.4,29.52,West,264,1.0,4.0,60,0.00,,,0.00,Wunderground v.1.15,2015-06-02 10:28:00,
2015-06-02 04:34:00,57.5,43.7,29.52,North,349,2.0,6.0,60,0.00,,,0.00,Wunderground v.1.15,2015-06-02 10:34:00,
2015-06-02 04:40:00,57.5,43.3,29.52,West,277,3.0,3.0,59,0.00,,,0.00,Wunderground v.1.15,2015-06-02 10:40:00,
2015-06-02 04:46:00,58.2,42.6,29.52,SE,142,2.0,3.0,56,0.00,,,0.00,Wunderground v.1.15,2015-06-02 10:46:00,
2015-06-02 04:51:00,57.7,43.9,29.52,SSE,162,1.0,1.0,60,0.00,,,0.00,Wunderground v.1.15,2015-06-02 10:51:00,
2015-06-02 04:57:00,56.8,42.6,29.53,NE,37,1.0,2.0,59,0.00,,,0.00,Wunderground v.1.15,2015-06-02 10:57:00,
2015-06-02 05:03:00,57.1,43.3,29.53,SSW,204,1.0,3.0,60,0.00,,,0.00,Wunderground v.1.15,2015-06-02 11:03:00,
2015-06-02 05:09:00,56.3,43.4,29.54,SSE,160,1.0,3.0,62,0.00,,,0.00,Wunderground v.1.15,2015-06-02 11:09:00,
2015-06-02 05:15:00,55.2,43.2,29.54,WSW,248,1.0,2.0,64,0.00,,,0.00,Wunderground v.1.15,2015-06-02 11:15:00,
2015-06-02 05:21:00,54.6,43.1,29.54,West,278,1.0,3.0,65,0.00,,,0.00,Wunderground v.1.15,2015-06-02 11:21:00,
2015-06-02 05:26:00,55.9,42.6,29.54,West,274,1.0,3.0,61,0.00,,,0.00,Wunderground v.1.15,2015-06-02 11:26:00,
2015-06-02 05:31:00,56.2,43.3,29.55,NE,37,1.0,2.0,62,0.00,,,0.00,Wunderground v.1.15,2015-06-02 11:31:00,
2015-06-02 05:37:00,55.6,43.6,29.55,West,277,1.0,2.0,64,0.00,,,0.00,Wunderground v.1.15,2015-06-02 11:37:00,
2015-06-02 05:42:00,56.2,43.3,29.55,West,266,1.0,1.0,62,0.00,,,0.00,Wunderground v.1.15,2015-06-02 11:42:00,
2015-06-02 05:48:00,56.6,43.3,29.56,WSW,252,1.0,1.0,61,0.00,,,0.00,Wunderground v.1.15,2015-06-02 11:48:00,
2015-06-02 05:54:00,57.0,43.7,29.55,West,278,1.0,3.0,61,0.00,,,0.00,Wunderground v.1.15,2015-06-02 11:54:00,
2015-06-02 06:00:00,56.9,43.6,29.56,West,278,0.0,1.0,61,0.00,,,0.00,Wunderground v.1.15,2015-06-02 12:00:00,
2015-06-02 06:06:00,57.0,44.5,29.56,West,278,1.0,2.0,63,0.00,,,0.00,Wunderground v.1.15,2015-06-02 12:06:00,
2015-06-02 06:12:00,57.1,44.6,29.56,WNW,295,2.0,3.0,63,0.00,,,0.00,Wunderground v.1.15,2015-06-02 12:12:00,
2015-06-02 06:17:00,57.1,45.0,29.56,WNW,291,1.0,3.0,64,0.00,,,0.00,Wunderground v.1.15,2015-06-02 12:17:00,
2015-06-02 06:22:00,56.8,45.6,29.56,North,352,1.0,2.0,66,0.00,,,0.00,Wunderground v.1.15,2015-06-02 12:22:00,
2015-06-02 06:28:00,55.7,44.9,29.56,NW,326,1.0,2.0,67,0.00,,,0.00,Wunderground v.1.15,2015-06-02 12:28:00,
2015-06-02 06:34:00,56.2,45.0,29.56,NNE,25,1.0,1.0,66,0.00,,,0.00,Wunderground v.1.15,2015-06-02 12:34:00,
2015-06-02 06:40:00,55.9,45.1,29.56,WNW,298,1.0,1.0,67,0.00,,,0.00,Wunderground v.1.15,2015-06-02 12:40:00,
2015-06-02 06:45:00,56.6,46.2,29.56,WNW,298,1.0,3.0,68,0.00,,,0.00,Wunderground v.1.15,2015-06-02 12:45:00,
2015-06-02 06:51:00,58.0,47.1,29.56,North,349,1.0,1.0,67,0.00,,,0.00,Wunderground v.1.15,2015-06-02 12:51:00,
2015-06-02 06:56:00,59.3,47.5,29.56,NNE,30,1.0,1.0,65,0.00,,,0.00,Wunderground v.1.15,2015-06-02 12:56:00,
2015-06-02 07:02:00,60.5,47.0,29.56,NNE,30,1.0,1.0,61,0.00,,,0.00,Wunderground v.1.15,2015-06-02 13:02:00,
2015-06-02 07:08:00,62.2,48.6,29.56,SSE,147,0.0,1.0,61,0.00,,,0.00,Wunderground v.1.15,2015-06-02 13:08:00,
2015-06-02 07:14:00,62.9,48.3,29.56,East,82,0.0,1.0,59,0.00,,,0.00,Wunderground v.1.15,2015-06-02 13:14:00,
2015-06-02 07:20:00,62.3,50.0,29.56,SSE,159,1.0,1.0,64,0.00,,,0.00,Wunderground v.1.15,2015-06-02 13:20:00,
2015-06-02 07:26:00,62.6,49.4,29.56,SSE,165,1.0,2.0,62,0.00,,,0.00,Wunderground v.1.15,2015-06-02 13:26:00,
2015-06-02 07:37:00,61.2,49.3,29.56,SE,131,2.0,2.0,65,0.00,,,0.00,Wunderground v.1.15,2015-06-02 13:37:00,
2015-06-02 07:43:00,61.7,49.0,29.56,SSW,205,1.0,2.0,63,0.00,,,0.00,Wunderground v.1.15,2015-06-02 13:43:00,
2015-06-02 07:49:00,63.0,49.8,29.55,SSE,165,1.0,3.0,62,0.00,,,0.00,Wunderground v.1.15,2015-06-02 13:49:00,
2015-06-02 07:55:00,62.6,49.4,29.55,ESE,103,2.0,4.0,62,0.00,,,0.00,Wunderground v.1.15,2015-06-02 13:55:00,
2015-06-02 08:00:00,62.8,49.6,29.55,SSE,159,2.0,2.0,62,0.00,,,0.00,Wunderground v.1.15,2015-06-02 14:00:00,
2015-06-02 08:06:00,63.9,48.8,29.55,SE,131,1.0,2.0,58,0.00,,,0.00,Wunderground v.1.15,2015-06-02 14:06:00,
2015-06-02 08:12:00,63.6,49.5,29.55,East,97,1.0,2.0,60,0.00,,,0.00,Wunderground v.1.15,2015-06-02 14:12:00,
2015-06-02 08:18:00,64.3,49.7,29.55,SSW,193,1.0,2.0,59,0.00,,,0.00,Wunderground v.1.15,2015-06-02 14:18:00,
2015-06-02 08:23:00,64.5,49.4,29.55,SE,146,2.0,3.0,58,0.00,,,0.00,Wunderground v.1.15,2015-06-02 14:23:00,
2015-06-02 08:29:00,63.8,49.2,29.54,ESE,103,2.0,3.0,59,0.00,,,0.00,Wunderground v.1.15,2015-06-02 14:29:00,
2015-06-02 08:35:00,63.6,49.0,29.54,East,91,2.0,4.0,59,0.00,,,0.00,Wunderground v.1.15,2015-06-02 14:35:00,
2015-06-02 08:41:00,64.6,50.4,29.54,SE,136,2.0,5.0,60,0.00,,,0.00,Wunderground v.1.15,2015-06-02 14:41:00,
2015-06-02 08:47:00,64.7,50.5,29.54,ENE,63,3.0,5.0,60,0.00,,,0.00,Wunderground v.1.15,2015-06-02 14:47:00,
2015-06-02 08:53:00,65.0,50.3,29.54,East,98,2.0,3.0,59,0.00,,,0.00,Wunderground v.1.15,2015-06-02 14:53:00,
2015-06-02 08:58:00,64.4,50.2,29.54,East,91,2.0,3.0,60,0.00,,,0.00,Wunderground v.1.15,2015-06-02 14:58:00,
2015-06-02 09:04:00,64.8,51.0,29.54,East,91,1.0,1.0,61,0.00,,,0.00,Wunderground v.1.15,2015-06-02 15:04:00,
2015-06-02 09:10:00,64.7,50.5,29.54,SE,127,0.0,2.0,60,0.00,,,0.00,Wunderground v.1.15,2015-06-02 15:10:00,
2015-06-02 09:16:00,65.1,50.4,29.54,East,79,1.0,2.0,59,0.00,,,0.00,Wunderground v.1.15,2015-06-02 15:16:00,
2015-06-02 09:22:00,65.8,52.0,29.53,ESE,119,1.0,3.0,61,0.00,,,0.00,Wunderground v.1.15,2015-06-02 15:22:00,
2015-06-02 09:28:00,66.4,52.5,29.54,ESE,122,2.0,4.0,61,0.00,,,0.00,Wunderground v.1.15,2015-06-02 15:28:00,
2015-06-02 09:33:00,66.7,52.4,29.53,ESE,119,2.0,2.0,60,0.00,,,0.00,Wunderground v.1.15,2015-06-02 15:33:00,
2015-06-02 09:39:00,67.3,53.4,29.53,SSE,156,2.0,3.0,61,0.00,,,0.00,Wunderground v.1.15,2015-06-02 15:39:00,
2015-06-02 09:45:00,68.1,54.6,29.52,SSE,150,2.0,3.0,62,0.00,,,0.00,Wunderground v.1.15,2015-06-02 15:45:00,
2015-06-02 09:51:00,69.3,54.4,29.52,ESE,122,2.0,3.0,59,0.00,,,0.00,Wunderground v.1.15,2015-06-02 15:51:00,
2015-06-02 09:57:00,70.4,55.8,29.52,SE,128,1.0,4.0,60,0.00,,,0.00,Wunderground v.1.15,2015-06-02 15:57:00,
2015-06-02 10:03:00,71.2,56.1,29.52,SE,138,2.0,3.0,59,0.00,,,0.00,Wunderground v.1.15,2015-06-02 16:03:00,
2015-06-02 10:09:00,72.2,55.6,29.51,SW,218,2.0,4.0,56,0.00,,,0.00,Wunderground v.1.15,2015-06-02 16:09:00,
2015-06-02 10:15:00,73.0,54.3,29.51,SE,134,2.0,3.0,52,0.00,,,0.00,Wunderground v.1.15,2015-06-02 16:15:00,
2015-06-02 10:21:00,72.9,57.3,29.51,ENE,65,2.0,2.0,58,0.00,,,0.00,Wunderground v.1.15,2015-06-02 16:21:00,
2015-06-02 10:27:00,73.7,58.9,29.51,SSE,157,3.0,5.0,60,0.00,,,0.00,Wunderground v.1.15,2015-06-02 16:27:00,
2015-06-02 10:33:00,74.4,58.7,29.50,SE,143,3.0,3.0,58,0.00,,,0.00,Wunderground v.1.15,2015-06-02 16:33:00,
2015-06-02 10:39:00,75.5,57.2,29.50,East,84,3.0,4.0,53,0.00,,,0.00,Wunderground v.1.15,2015-06-02 16:39:00,
2015-06-02 10:45:00,75.1,59.3,29.50,East,89,3.0,6.0,58,0.00,,,0.00,Wunderground v.1.15,2015-06-02 16:45:00,
2015-06-02 10:51:00,75.2,57.4,29.50,East,101,5.0,5.0,54,0.00,,,0.00,Wunderground v.1.15,2015-06-02 16:51:00,
2015-06-02 10:57:00,76.6,52.4,29.50,SE,139,4.0,6.0,43,0.00,,,0.00,Wunderground v.1.15,2015-06-02 16:57:00,
2015-06-02 11:03:00,78.6,40.8,29.50,SE,146,5.0,8.0,26,0.00,,,0.00,Wunderground v.1.15,2015-06-02 17:03:00,